Time;durP1;ratioP1;P1;durP2;ratioP2;P2;SDS_P1;SDS_P2;PMS_P1;PMS_P2;Temp;Humidity;BMP_temperature;BMP_pressure;BME280_temperature;BME280_humidity;BME280_pressure;Samples;Min_cycle;Max_cycle;Signal;HPM_P1;HPM_P2
2022/01/11 00:02:00;;;;;;;31.13;12.23;;;6.40;99.90;;;;;;5050021;28;20049;-69
2022/01/11 00:04:29;;;;;;;34.83;13.10;;;6.30;99.90;;;;;;5050029;28;20033;-69
2022/01/11 00:06:55;;;;;;;30.98;12.25;;;6.20;99.90;;;;;;5050545;28;20059;-68
2022/01/11 00:09:33;;;;;;;31.48;12.27;;;6.20;99.90;;;;;;5051124;28;20088;-69
2022/01/11 00:11:59;;;;;;;29.30;12.52;;;6.20;99.90;;;;;;5070442;28;20048;-70
2022/01/11 00:14:26;;;;;;;32.88;12.50;;;6.10;99.90;;;;;;5070934;28;20032;-69
2022/01/11 00:16:51;;;;;;;29.52;12.60;;;6.20;99.90;;;;;;5057789;28;20025;-70
2022/01/11 00:19:17;;;;;;;30.17;11.52;;;6.10;99.90;;;;;;5050617;28;20025;-69
2022/01/11 00:21:48;;;;;;;25.15;11.45;;;6.10;99.90;;;;;;5051047;28;20056;-70
2022/01/11 00:24:34;;;;;;;27.63;12.25;;;6.10;99.90;;;;;;5051154;28;20116;-70
2022/01/11 00:27:05;;;;;;;25.80;12.18;;;6.00;99.90;;;;;;5050119;28;20037;-70
2022/01/11 00:29:31;;;;;;;28.63;12.30;;;5.90;99.90;;;;;;5046411;28;20458;-70
2022/01/11 00:32:02;;;;;;;24.45;12.40;;;5.90;99.90;;;;;;5030961;28;20048;-69
2022/01/11 00:34:38;;;;;;;25.90;11.73;;;5.80;99.90;;;;;;5030763;28;20379;-69
2022/01/11 00:37:04;;;;;;;27.77;11.30;;;5.70;99.90;;;;;;5031203;28;20017;-69
2022/01/11 00:39:30;;;;;;;27.85;11.88;;;5.70;99.90;;;;;;5050138;28;20048;-69
2022/01/11 00:41:56;;;;;;;31.55;12.55;;;5.70;99.90;;;;;;5050993;28;20443;-69
2022/01/11 00:44:23;;;;;;;32.72;11.75;;;5.70;99.90;;;;;;5050546;28;20025;-69
2022/01/11 00:46:49;;;;;;;29.05;12.27;;;5.70;99.90;;;;;;5049391;28;20120;-69
2022/01/11 00:49:14;;;;;;;33.85;12.45;;;5.70;99.90;;;;;;5050103;28;20048;-69
2022/01/11 00:51:40;;;;;;;35.15;13.48;;;5.70;99.90;;;;;;5049053;28;20451;-69
2022/01/11 00:54:06;;;;;;;34.75;13.18;;;5.60;99.90;;;;;;5051054;28;20025;-68
2022/01/11 00:56:31;;;;;;;32.10;11.98;;;5.60;99.90;;;;;;5050618;28;20040;-69
2022/01/11 00:58:57;;;;;;;33.40;12.48;;;5.70;99.90;;;;;;5049580;28;20028;-70
2022/01/11 01:01:23;;;;;;;30.88;13.40;;;5.70;99.90;;;;;;5049914;28;20142;-70
2022/01/11 01:03:49;;;;;;;33.30;11.85;;;5.70;99.90;;;;;;5049041;28;20063;-69
2022/01/11 01:06:15;;;;;;;35.50;13.43;;;5.60;99.90;;;;;;5049763;28;20439;-69
2022/01/11 01:08:40;;;;;;;35.58;12.50;;;5.60;99.90;;;;;;5048818;28;20090;-69
2022/01/11 01:11:06;;;;;;;34.75;13.60;;;5.70;99.90;;;;;;5049878;28;20068;-69
2022/01/11 01:13:32;;;;;;;29.70;12.52;;;5.70;99.90;;;;;;5049798;28;20427;-70
2022/01/11 01:15:57;;;;;;;27.13;12.52;;;5.60;99.90;;;;;;5050479;28;20367;-69
2022/01/11 01:18:29;;;;;;;33.50;12.55;;;5.60;99.90;;;;;;5050111;28;20040;-69
2022/01/11 01:20:55;;;;;;;31.33;12.80;;;5.50;99.90;;;;;;5050341;28;20041;-69
2022/01/11 01:23:22;;;;;;;42.45;13.02;;;5.50;99.90;;;;;;5066163;28;20035;-69
2022/01/11 01:25:48;;;;;;;25.83;11.55;;;5.40;99.90;;;;;;5058893;28;20041;-69
2022/01/11 01:28:14;;;;;;;29.23;11.77;;;5.30;99.90;;;;;;5049770;28;20136;-69
2022/01/11 01:30:41;;;;;;;28.20;12.70;;;5.30;99.90;;;;;;5050000;28;20083;-69
2022/01/11 01:33:07;;;;;;;32.08;11.93;;;5.30;99.90;;;;;;5050649;28;20085;-69
2022/01/11 01:35:42;;;;;;;30.15;13.30;;;5.20;99.90;;;;;;5050150;28;20044;-70
2022/01/11 01:38:09;;;;;;;31.50;12.68;;;5.30;99.90;;;;;;5049631;28;20029;-68
2022/01/11 01:40:44;;;;;;;34.88;12.85;;;5.30;99.90;;;;;;5052907;28;20044;-70
2022/01/11 01:43:13;;;;;;;27.40;12.35;;;5.20;99.90;;;;;;5054151;28;20040;-69
2022/01/11 01:45:39;;;;;;;27.05;11.82;;;5.20;99.90;;;;;;5053808;28;20032;-69
2022/01/11 01:48:06;;;;;;;34.05;13.63;;;5.10;99.90;;;;;;5053249;28;20067;-69
2022/01/11 01:50:32;;;;;;;38.92;13.38;;;5.10;99.90;;;;;;5037122;28;20036;-70
2022/01/11 01:53:02;;;;;;;25.92;12.63;;;5.10;99.90;;;;;;5052670;28;20649;-69
2022/01/11 01:55:28;;;;;;;28.13;12.40;;;5.00;99.90;;;;;;5053681;28;20040;-69
2022/01/11 01:57:53;;;;;;;31.95;12.50;;;5.00;99.90;;;;;;5053292;28;20097;-69
2022/01/11 02:00:22;;;;;;;35.38;13.35;;;5.00;99.90;;;;;;5053839;28;20048;-70
2022/01/11 02:02:48;;;;;;;30.60;13.27;;;5.00;99.90;;;;;;5053396;28;20056;-70
2022/01/11 02:05:13;;;;;;;33.85;12.27;;;4.90;99.90;;;;;;5053612;28;20083;-69
2022/01/11 02:07:39;;;;;;;34.38;12.80;;;4.90;99.90;;;;;;5053578;28;20675;-70
2022/01/11 02:10:07;;;;;;;29.45;11.52;;;4.80;99.90;;;;;;5052526;28;20037;-71
2022/01/11 02:12:32;;;;;;;31.90;12.60;;;4.80;99.90;;;;;;5053550;28;20028;-70
2022/01/11 02:14:59;;;;;;;30.70;12.10;;;4.80;99.90;;;;;;5053823;28;20040;-70
2022/01/11 02:17:29;;;;;;;29.30;11.65;;;4.80;99.90;;;;;;5052327;28;20030;-70
2022/01/11 02:19:56;;;;;;;34.38;11.90;;;4.80;99.90;;;;;;5051968;28;20029;-69
2022/01/11 02:22:26;;;;;;;31.27;13.05;;;4.70;99.90;;;;;;5053332;28;20033;-70
2022/01/11 02:24:52;;;;;;;36.03;13.20;;;4.70;99.90;;;;;;5052314;28;20356;-70
2022/01/11 02:27:18;;;;;;;29.27;13.00;;;4.70;99.90;;;;;;5053696;28;20043;-69
2022/01/11 02:29:44;;;;;;;28.83;12.48;;;4.70;99.90;;;;;;5053011;28;20030;-70
2022/01/11 02:32:11;;;;;;;34.58;12.95;;;4.60;99.90;;;;;;5052755;28;20048;-71
2022/01/11 02:34:37;;;;;;;34.08;12.68;;;4.60;99.90;;;;;;5053160;28;20067;-70
2022/01/11 02:37:04;;;;;;;31.73;13.05;;;4.60;99.90;;;;;;5052407;28;20036;-70
2022/01/11 02:39:30;;;;;;;27.65;12.13;;;4.50;99.90;;;;;;5051868;28;20029;-70
2022/01/11 02:41:57;;;;;;;25.40;12.30;;;4.50;99.90;;;;;;5051925;28;20479;-69
2022/01/11 02:44:23;;;;;;;29.80;11.70;;;4.40;99.90;;;;;;5052197;28;20040;-69
2022/01/11 02:46:50;;;;;;;29.88;12.05;;;4.50;99.90;;;;;;5051684;28;20277;-69
2022/01/11 02:49:15;;;;;;;26.73;12.00;;;4.50;99.90;;;;;;5052865;28;20375;-70
2022/01/11 02:51:41;;;;;;;29.45;12.32;;;4.40;99.90;;;;;;5052681;28;20040;-70
2022/01/11 02:54:07;;;;;;;34.08;13.70;;;4.30;99.90;;;;;;5052398;28;20108;-68
2022/01/11 02:56:33;;;;;;;31.77;12.52;;;4.30;99.90;;;;;;5052592;28;20037;-68
2022/01/11 02:58:59;;;;;;;25.20;12.20;;;4.30;99.90;;;;;;5052842;28;20039;-69
2022/01/11 03:01:25;;;;;;;24.15;12.25;;;4.30;99.90;;;;;;5052633;28;20120;-69
2022/01/11 03:03:51;;;;;;;33.97;13.20;;;4.20;99.90;;;;;;5051495;28;20098;-70
2022/01/11 03:06:17;;;;;;;37.17;12.82;;;4.20;99.90;;;;;;5052446;28;20097;-69
2022/01/11 03:08:46;;;;;;;29.25;12.82;;;4.20;99.90;;;;;;5051994;28;20135;-70
2022/01/11 03:11:14;;;;;;;35.92;13.10;;;4.20;99.90;;;;;;5052551;28;20049;-71
2022/01/11 03:13:43;;;;;;;26.08;11.52;;;4.20;99.90;;;;;;5052397;28;20063;-69
2022/01/11 03:16:09;;;;;;;35.08;12.45;;;4.10;99.90;;;;;;5052071;28;20100;-70
2022/01/11 03:18:35;;;;;;;33.60;12.73;;;4.10;99.90;;;;;;5052393;28;20017;-69
2022/01/11 03:21:01;;;;;;;30.05;13.77;;;4.10;99.90;;;;;;5052774;28;20021;-69
2022/01/11 03:23:27;;;;;;;33.00;14.57;;;4.10;99.90;;;;;;5052427;28;20116;-69
2022/01/11 03:25:53;;;;;;;33.70;14.27;;;4.00;99.90;;;;;;5050990;28;20108;-69
2022/01/11 03:28:23;;;;;;;35.40;13.32;;;3.90;99.90;;;;;;5051666;28;20394;-69
2022/01/11 03:30:50;;;;;;;32.90;12.50;;;3.90;99.90;;;;;;5052095;28;20033;-69
2022/01/11 03:33:16;;;;;;;34.35;13.52;;;3.90;99.90;;;;;;5052588;28;20060;-68
2022/01/11 03:35:42;;;;;;;24.95;11.90;;;3.90;99.90;;;;;;5051720;28;20033;-69
2022/01/11 03:38:11;;;;;;;31.45;13.60;;;3.90;99.90;;;;;;5050595;28;20383;-70
2022/01/11 03:40:38;;;;;;;28.05;12.25;;;3.80;99.90;;;;;;5051820;28;20044;-69
2022/01/11 03:43:04;;;;;;;29.73;13.80;;;3.80;99.90;;;;;;5052046;28;20029;-69
2022/01/11 03:45:31;;;;;;;31.63;12.18;;;3.80;99.90;;;;;;5051602;28;20032;-67
2022/01/11 03:48:00;;;;;;;33.65;13.15;;;3.80;99.90;;;;;;5051699;28;20029;-70
2022/01/11 03:50:27;;;;;;;30.13;12.63;;;3.80;99.90;;;;;;5051717;28;20058;-70
2022/01/11 03:52:59;;;;;;;32.15;12.55;;;3.70;99.90;;;;;;5051648;28;20107;-70
2022/01/11 03:55:47;;;;;;;30.10;13.10;;;3.60;99.90;;;;;;5051248;28;20375;-68
2022/01/11 03:58:14;;;;;;;33.03;12.93;;;3.60;99.90;;;;;;5050557;28;20102;-69
2022/01/11 04:00:40;;;;;;;30.40;12.05;;;3.60;99.90;;;;;;5051220;28;20125;-68
2022/01/11 04:03:05;;;;;;;32.05;12.93;;;3.50;99.90;;;;;;5050966;28;20115;-70
2022/01/11 04:05:32;;;;;;;30.45;13.32;;;3.50;99.90;;;;;;5050060;28;20032;-69
2022/01/11 04:07:57;;;;;;;33.28;12.63;;;3.50;99.90;;;;;;5051232;28;20417;-69
2022/01/11 04:10:23;;;;;;;31.42;12.82;;;3.50;99.90;;;;;;5051177;28;20033;-70
2022/01/11 04:12:50;;;;;;;31.70;12.35;;;3.60;99.90;;;;;;5051291;28;20048;-68
2022/01/11 04:15:16;;;;;;;27.05;11.27;;;3.90;99.90;;;;;;5051156;28;20082;-68
2022/01/11 04:17:42;;;;;;;32.55;12.25;;;4.10;99.90;;;;;;5051330;28;20029;-68
2022/01/11 04:20:08;;;;;;;24.50;12.00;;;3.90;99.80;;;;;;5050956;28;20090;-69
2022/01/11 04:22:34;;;;;;;32.33;11.38;;;3.60;99.50;;;;;;5050811;28;20098;-70
2022/01/11 04:25:00;;;;;;;30.50;12.48;;;3.50;99.60;;;;;;5048294;28;20037;-70
2022/01/11 04:27:25;;;;;;;26.55;11.98;;;3.50;99.70;;;;;;5031543;28;20022;-70
2022/01/11 04:29:51;;;;;;;31.70;11.50;;;3.40;99.70;;;;;;5066565;28;20467;-70
2022/01/11 04:32:16;;;;;;;24.00;11.13;;;3.40;99.80;;;;;;5050746;28;20406;-70
2022/01/11 04:34:42;;;;;;;32.97;12.10;;;3.40;99.90;;;;;;5050815;28;20547;-69
2022/01/11 04:37:07;;;;;;;29.02;11.13;;;3.30;99.80;;;;;;5051701;28;20041;-70
2022/01/11 04:39:33;;;;;;;40.38;13.93;;;3.30;99.80;;;;;;5050766;28;20028;-69
2022/01/11 04:41:59;;;;;;;35.17;11.25;;;3.20;99.80;;;;;;5066831;28;20482;-69
2022/01/11 04:44:24;;;;;;;30.52;11.60;;;3.20;99.90;;;;;;5063760;28;20032;-70
2022/01/11 04:46:50;;;;;;;30.83;12.93;;;3.20;99.90;;;;;;5069551;28;20033;-70
2022/01/11 04:49:16;;;;;;;30.35;13.07;;;3.30;99.90;;;;;;5070517;28;20032;-70
2022/01/11 04:51:41;;;;;;;32.97;13.23;;;3.30;99.90;;;;;;5067843;28;20033;-70
2022/01/11 04:54:07;;;;;;;32.47;12.95;;;3.30;99.90;;;;;;5069442;28;20445;-70
2022/01/11 04:56:33;;;;;;;32.72;12.05;;;3.30;99.90;;;;;;5070574;28;20024;-68
2022/01/11 04:59:00;;;;;;;31.67;12.00;;;3.30;99.90;;;;;;5058343;28;20025;-70
2022/01/11 05:01:25;;;;;;;29.65;13.50;;;3.30;99.90;;;;;;5050934;28;20370;-71
2022/01/11 05:03:51;;;;;;;34.58;13.15;;;3.30;99.80;;;;;;5050278;28;20109;-69
2022/01/11 05:06:19;;;;;;;34.00;13.80;;;3.30;99.80;;;;;;5050869;28;20031;-69
2022/01/11 05:08:45;;;;;;;41.70;14.30;;;3.30;99.80;;;;;;5050260;28;20470;-69
2022/01/11 05:11:11;;;;;;;39.60;13.25;;;3.20;99.90;;;;;;5053781;28;20031;-70
2022/01/11 05:13:37;;;;;;;32.55;12.48;;;3.20;99.90;;;;;;5070506;28;20037;-68
2022/01/11 05:16:03;;;;;;;29.13;12.40;;;3.20;99.90;;;;;;5074285;28;20035;-68
2022/01/11 05:18:29;;;;;;;36.90;14.15;;;3.20;99.90;;;;;;5072581;28;20055;-69
2022/01/11 05:20:55;;;;;;;41.47;14.35;;;3.30;99.90;;;;;;5075246;28;20036;-68
2022/01/11 05:23:21;;;;;;;42.28;15.88;;;3.40;99.90;;;;;;5073313;28;20043;-70
2022/01/11 05:25:47;;;;;;;44.13;16.33;;;3.50;99.90;;;;;;5074399;28;20466;-70
2022/01/11 05:28:12;;;;;;;45.15;17.15;;;3.50;99.90;;;;;;5071775;28;20082;-68
2022/01/11 05:30:38;;;;;;;53.10;18.98;;;3.60;99.90;;;;;;5074402;28;20024;-69
2022/01/11 05:33:04;;;;;;;53.00;18.85;;;3.70;99.90;;;;;;5074737;28;20024;-70
2022/01/11 05:35:30;;;;;;;43.35;18.27;;;3.70;99.90;;;;;;5072886;28;20037;-70
2022/01/11 05:37:56;;;;;;;46.03;19.73;;;3.70;99.90;;;;;;5072240;28;20068;-70
2022/01/11 05:40:22;;;;;;;55.67;18.27;;;3.80;99.90;;;;;;5070506;28;20162;-70
2022/01/11 05:42:49;;;;;;;45.92;19.02;;;3.80;99.90;;;;;;5073949;28;20059;-70
2022/01/11 05:45:16;;;;;;;49.30;18.33;;;3.70;99.90;;;;;;5074473;28;20016;-70
2022/01/11 05:47:42;;;;;;;51.00;20.33;;;3.70;99.90;;;;;;5073973;28;20040;-69
2022/01/11 05:50:11;;;;;;;37.60;18.20;;;3.70;99.90;;;;;;5059624;28;20553;-69
2022/01/11 05:52:38;;;;;;;47.10;19.73;;;3.80;99.90;;;;;;5052768;28;20120;-69
2022/01/11 05:55:06;;;;;;;44.13;16.83;;;3.80;99.90;;;;;;5053865;28;20451;-69
2022/01/11 05:57:32;;;;;;;;;;;3.80;99.90;;;;;;5054106;28;20033;-72
2022/01/11 05:59:57;;;;;;;37.90;17.40;;;3.80;99.90;;;;;;5054144;28;19947;-69
2022/01/11 06:02:23;;;;;;;45.67;19.20;;;3.70;99.90;;;;;;5053671;28;20064;-70
2022/01/11 06:04:48;;;;;;;46.97;19.50;;;3.70;99.90;;;;;;5059797;28;20506;-68
2022/01/11 06:07:14;;;;;;;36.42;17.58;;;3.70;99.90;;;;;;5053690;28;20674;-69
2022/01/11 06:09:40;;;;;;;48.40;22.38;;;3.70;99.90;;;;;;5052369;28;20039;-70
2022/01/11 06:12:06;;;;;;;39.53;17.70;;;3.70;99.90;;;;;;5053952;28;20017;-70
2022/01/11 06:14:31;;;;;;;36.92;17.48;;;3.70;99.90;;;;;;5052797;28;20056;-70
2022/01/11 06:16:57;;;;;;;39.60;17.58;;;3.70;99.90;;;;;;5052518;28;20543;-70
2022/01/11 06:19:22;;;;;;;41.70;16.88;;;3.70;99.90;;;;;;5053187;28;20044;-70
2022/01/11 06:21:48;;;;;;;37.47;16.30;;;3.80;99.90;;;;;;5053627;28;20121;-70
2022/01/11 06:24:14;;;;;;;41.72;17.42;;;3.70;99.90;;;;;;5052813;28;20035;-70
2022/01/11 06:26:39;;;;;;;35.53;17.60;;;3.60;99.90;;;;;;5052784;28;20036;-71
2022/01/11 06:29:05;;;;;;;41.08;17.60;;;3.60;99.90;;;;;;5049745;28;21584;-70
2022/01/11 06:31:34;;;;;;;37.80;17.63;;;3.60;99.90;;;;;;5053745;28;20439;-69
2022/01/11 06:33:59;;;;;;;53.63;17.15;;;3.60;99.90;;;;;;5053416;28;20044;-70
2022/01/11 06:36:25;;;;;;;40.70;17.75;;;3.70;99.90;;;;;;5053908;28;20021;-70
2022/01/11 06:38:50;;;;;;;40.33;17.40;;;3.70;99.90;;;;;;5052646;28;20493;-69
2022/01/11 06:41:16;;;;;;;44.50;17.70;;;3.70;99.90;;;;;;5053568;28;20033;-70
2022/01/11 06:43:43;;;;;;;44.45;17.27;;;3.80;99.90;;;;;;5050314;28;20036;-69
2022/01/11 06:46:08;;;;;;;40.08;17.50;;;3.80;99.90;;;;;;5053142;28;20064;-70
2022/01/11 06:48:34;;;;;;;39.20;15.93;;;3.80;99.90;;;;;;5052909;28;20075;-69
2022/01/11 06:51:00;;;;;;;46.45;18.23;;;3.90;99.90;;;;;;5050401;28;20323;-70
2022/01/11 06:53:27;;;;;;;45.13;18.98;;;3.90;99.90;;;;;;5053150;28;20029;-69
2022/01/11 06:55:54;;;;;;;41.78;16.63;;;4.00;99.90;;;;;;5051924;28;20428;-70
2022/01/11 06:58:20;;;;;;;43.97;17.42;;;4.00;99.90;;;;;;5050930;28;20041;-71
2022/01/11 07:00:46;;;;;;;42.50;16.45;;;4.00;99.90;;;;;;5047322;28;20479;-70
2022/01/11 07:03:12;;;;;;;44.88;18.02;;;4.00;99.90;;;;;;5033219;28;20110;-70
2022/01/11 07:05:38;;;;;;;43.55;19.23;;;4.10;99.90;;;;;;5050577;28;20044;-70
2022/01/11 07:08:04;;;;;;;39.85;17.20;;;4.10;99.90;;;;;;5051282;28;20029;-70
2022/01/11 07:10:30;;;;;;;43.40;17.65;;;4.20;99.90;;;;;;5047471;28;20438;-69
2022/01/11 07:12:57;;;;;;;44.90;17.05;;;4.20;99.90;;;;;;5052214;28;20036;-68
2022/01/11 07:15:23;;;;;;;45.80;18.23;;;4.20;99.90;;;;;;5052524;28;20032;-67
2022/01/11 07:17:49;;;;;;;42.72;18.67;;;4.20;99.90;;;;;;5050656;28;20033;-68
2022/01/11 07:20:15;;;;;;;55.67;20.20;;;4.20;99.90;;;;;;5050705;28;20625;-71
2022/01/11 07:22:41;;;;;;;40.85;18.35;;;4.20;99.90;;;;;;5052075;28;20364;-71
2022/01/11 07:25:07;;;;;;;44.28;17.88;;;4.30;99.90;;;;;;5050892;28;20051;-71
2022/01/11 07:27:34;;;;;;;42.42;16.65;;;4.30;99.90;;;;;;5049032;28;20041;-70
2022/01/11 07:30:00;;;;;;;47.50;18.23;;;4.30;99.90;;;;;;5050745;28;20112;-71
2022/01/11 07:32:27;;;;;;;43.45;17.98;;;4.30;99.90;;;;;;5050859;28;20025;-71
2022/01/11 07:34:52;;;;;;;47.33;18.70;;;4.30;99.90;;;;;;5051831;28;20033;-72
2022/01/11 07:37:18;;;;;;;45.20;19.10;;;4.30;99.90;;;;;;5050811;28;20451;-72
2022/01/11 07:39:44;;;;;;;53.65;19.77;;;4.30;99.90;;;;;;5051792;28;20025;-72
2022/01/11 07:42:10;;;;;;;44.10;19.48;;;4.30;99.90;;;;;;5051287;28;20035;-73
2022/01/11 07:44:35;;;;;;;47.10;18.98;;;4.30;99.90;;;;;;5042967;28;20062;-72
2022/01/11 07:47:03;;;;;;;50.92;19.48;;;4.40;99.90;;;;;;5041852;28;20117;-73
2022/01/11 07:49:29;;;;;;;50.42;20.30;;;4.40;99.90;;;;;;5050237;28;20557;-72
2022/01/11 07:51:55;;;;;;;56.78;20.48;;;4.40;99.90;;;;;;5052377;28;20032;-72
2022/01/11 07:54:21;;;;;;;60.05;25.02;;;4.50;99.90;;;;;;5051733;28;20017;-72
2022/01/11 07:56:47;;;;;;;69.28;24.00;;;4.50;99.90;;;;;;5051666;28;20517;-74
2022/01/11 07:59:13;;;;;;;60.88;23.42;;;4.60;99.90;;;;;;5051600;28;20060;-74
2022/01/11 08:01:38;;;;;;;55.22;21.05;;;4.60;99.90;;;;;;5050944;28;20052;-73
2022/01/11 08:04:05;;;;;;;71.63;24.55;;;4.60;99.90;;;;;;5051801;28;20037;-73
2022/01/11 08:06:32;;;;;;;56.17;22.20;;;4.60;99.90;;;;;;5048591;28;20159;-71
2022/01/11 08:08:59;;;;;;;71.57;24.92;;;4.60;99.90;;;;;;5046703;28;20040;-72
2022/01/11 08:11:26;;;;;;;71.50;24.50;;;4.60;99.90;;;;;;5050417;28;20029;-71
2022/01/11 08:13:51;;;;;;;69.85;25.23;;;4.70;99.90;;;;;;5051362;28;20344;-72
2022/01/11 08:16:17;;;;;;;75.63;25.27;;;4.70;99.90;;;;;;5051337;28;20132;-72
2022/01/11 08:18:43;;;;;;;67.13;25.38;;;4.70;99.90;;;;;;5051588;28;20082;-73
2022/01/11 08:21:08;;;;;;;67.82;23.67;;;4.70;99.90;;;;;;5050801;28;20037;-73
2022/01/11 08:23:34;;;;;;;59.47;24.83;;;4.70;99.90;;;;;;5050777;28;20101;-72
2022/01/11 08:26:00;;;;;;;66.05;23.67;;;4.80;99.90;;;;;;5051114;28;20037;-72
2022/01/11 08:28:25;;;;;;;64.28;24.52;;;4.90;99.90;;;;;;5050902;28;20482;-70
2022/01/11 08:30:52;;;;;;;77.40;26.33;;;4.80;99.90;;;;;;5051060;28;20029;-72
2022/01/11 08:33:18;;;;;;;78.88;26.15;;;4.70;99.90;;;;;;5051479;28;20025;-73
2022/01/11 08:35:43;;;;;;;57.05;23.35;;;4.80;99.90;;;;;;5050375;28;20129;-73
2022/01/11 08:38:10;;;;;;;75.07;25.20;;;4.80;99.90;;;;;;5050346;28;20060;-73
2022/01/11 08:40:36;;;;;;;67.57;24.88;;;4.80;99.90;;;;;;5051800;28;20689;-73
2022/01/11 08:43:04;;;;;;;72.13;26.50;;;4.70;99.90;;;;;;5050683;28;20140;-72
2022/01/11 08:45:30;;;;;;;70.55;24.27;;;4.80;99.90;;;;;;5037903;28;20422;-73
2022/01/11 08:47:56;;;;;;;69.40;24.83;;;4.80;99.90;;;;;;5031069;28;20040;-72
2022/01/11 08:50:22;;;;;;;71.18;25.38;;;4.70;99.90;;;;;;5031557;28;20033;-73
2022/01/11 08:52:49;;;;;;;66.20;25.88;;;4.80;99.90;;;;;;5036723;28;20029;-74
2022/01/11 08:55:15;;;;;;;68.47;27.45;;;4.80;99.90;;;;;;5051334;28;20031;-74
2022/01/11 08:57:41;;;;;;;71.70;25.27;;;4.90;99.90;;;;;;5050926;28;20100;-73
2022/01/11 09:00:16;;;;;;;72.82;27.08;;;4.90;99.90;;;;;;5051862;28;20025;-77
2022/01/11 09:02:45;;;;;;;63.22;23.60;;;4.80;99.90;;;;;;5050626;28;20075;-77
2022/01/11 09:05:11;;;;;;;70.32;22.80;;;4.90;99.90;;;;;;5051223;28;20049;-77
2022/01/11 09:07:37;;;;;;;68.82;24.13;;;4.80;99.90;;;;;;5050792;28;20033;-78
2022/01/11 09:10:03;;;;;;;66.85;25.88;;;4.90;99.90;;;;;;5050110;28;20036;-76
2022/01/11 09:12:29;;;;;;;62.38;24.50;;;4.90;99.90;;;;;;5048928;28;20028;-73
2022/01/11 09:14:54;;;;;;;68.13;23.20;;;4.90;99.90;;;;;;5050398;28;20087;-70
2022/01/11 09:17:20;;;;;;;70.47;24.58;;;5.00;99.90;;;;;;5048728;28;20040;-70
2022/01/11 09:19:46;;;;;;;70.97;25.52;;;5.00;99.90;;;;;;5050036;28;20079;-77
2022/01/11 09:22:12;;;;;;;73.32;27.25;;;4.90;99.90;;;;;;5051186;28;20097;-76
2022/01/11 09:24:38;;;;;;;73.03;26.15;;;4.90;99.90;;;;;;5048061;28;20033;-76
2022/01/11 09:27:04;;;;;;;62.25;25.33;;;5.10;99.90;;;;;;5050880;28;20033;-75
2022/01/11 09:29:32;;;;;;;66.88;25.52;;;5.10;99.90;;;;;;5050555;28;20037;-75
2022/01/11 09:31:59;;;;;;;61.75;25.67;;;5.10;99.90;;;;;;5050998;28;20625;-74
2022/01/11 09:34:25;;;;;;;54.30;24.33;;;5.10;99.90;;;;;;5050775;28;20106;-76
2022/01/11 09:36:52;;;;;;;72.03;24.63;;;5.20;99.90;;;;;;5048930;28;20261;-75
2022/01/11 09:39:18;;;;;;;73.47;27.67;;;5.20;99.90;;;;;;5050952;28;20032;-75
2022/01/11 09:41:43;;;;;;;67.40;25.77;;;5.20;99.90;;;;;;5050997;28;20029;-74
2022/01/11 09:44:09;;;;;;;61.00;24.58;;;5.20;99.90;;;;;;5051366;28;20025;-77
2022/01/11 09:46:35;;;;;;;59.65;24.05;;;5.20;99.90;;;;;;5050374;28;20030;-77
2022/01/11 09:49:01;;;;;;;61.17;24.17;;;5.20;99.90;;;;;;5049274;28;20051;-79
2022/01/11 09:51:29;;;;;;;67.45;24.40;;;5.10;99.90;;;;;;5050329;28;20031;-77
2022/01/11 09:53:55;;;;;;;59.20;23.65;;;5.20;99.90;;;;;;5050424;28;20165;-78
2022/01/11 09:56:21;;;;;;;59.40;23.02;;;5.20;99.90;;;;;;5051370;28;20471;-75
2022/01/11 09:58:46;;;;;;;65.97;24.17;;;5.10;99.90;;;;;;5050048;28;20029;-75
2022/01/11 10:01:12;;;;;;;60.85;23.90;;;5.20;99.90;;;;;;5051135;28;20360;-74
2022/01/11 10:04:01;;;;;;;56.47;22.08;;;5.20;99.90;;;;;;5052331;28;20542;-73
2022/01/11 10:06:28;;;;;;;65.00;24.08;;;5.20;99.90;;;;;;5034276;28;20021;-74
2022/01/11 10:09:18;;;;;;;56.10;23.45;;;5.20;99.90;;;;;;5032553;28;20498;-72
2022/01/11 10:11:47;;;;;;;55.83;21.88;;;5.20;99.90;;;;;;5032663;28;20030;-75
2022/01/11 10:14:31;;;;;;;55.55;21.48;;;5.30;99.90;;;;;;5036740;28;20032;-76
2022/01/11 10:17:12;;;;;;;54.90;22.05;;;5.40;99.90;;;;;;5054055;28;20025;-74
2022/01/11 10:19:40;;;;;;;49.30;19.63;;;5.40;99.90;;;;;;5054869;28;20029;-74
2022/01/11 10:22:11;;;;;;;47.85;20.15;;;5.40;99.90;;;;;;5053693;28;20029;-75
2022/01/11 10:24:43;;;;;;;51.95;19.98;;;5.40;99.90;;;;;;5054644;28;20017;-75
2022/01/11 10:27:20;;;;;;;52.15;20.42;;;5.40;99.90;;;;;;5053303;28;20050;-72
2022/01/11 10:29:51;;;;;;;45.03;19.45;;;5.40;99.90;;;;;;5054314;28;20032;-76
2022/01/11 10:32:22;;;;;;;48.35;20.25;;;5.40;99.90;;;;;;5053115;28;20036;-74
2022/01/11 10:34:54;;;;;;;43.28;19.10;;;5.50;99.90;;;;;;5053149;28;20025;-75
2022/01/11 10:37:32;;;;;;;40.42;17.58;;;5.50;99.90;;;;;;5053285;28;20107;-74
2022/01/11 10:40:12;;;;;;;40.70;17.77;;;5.50;99.90;;;;;;5052968;28;20057;-72
2022/01/11 10:42:49;;;;;;;48.90;20.20;;;5.50;99.90;;;;;;5052234;28;20529;-72
2022/01/11 10:45:19;;;;;;;66.32;27.35;;;5.50;99.90;;;;;;5052555;28;20225;-73
2022/01/11 10:48:07;;;;;;;52.28;21.00;;;5.50;99.90;;;;;;5051791;28;20032;-73
2022/01/11 10:50:45;;;;;;;52.00;19.85;;;5.50;99.90;;;;;;5061887;28;20028;-75
2022/01/11 10:53:17;;;;;;;50.38;20.42;;;5.60;99.90;;;;;;5073149;28;20083;-76
2022/01/11 10:55:51;;;;;;;55.28;20.65;;;5.60;99.90;;;;;;5072204;28;20041;-77
2022/01/11 10:58:17;;;;;;;42.58;17.80;;;5.70;99.90;;;;;;5072295;28;20194;-76
2022/01/11 11:00:51;;;;;;;43.63;19.83;;;5.70;99.90;;;;;;5069169;28;20031;-74
2022/01/11 11:03:22;;;;;;;47.67;18.88;;;5.60;99.90;;;;;;5052536;28;20128;-75
2022/01/11 11:05:58;;;;;;;59.17;23.40;;;5.80;99.90;;;;;;5051675;28;20408;-72
2022/01/11 11:08:30;;;;;;;43.88;18.27;;;5.90;99.90;;;;;;5033662;28;20057;-73
2022/01/11 11:10:55;;;;;;;48.90;21.60;;;6.00;99.90;;;;;;5031391;28;20031;-73
2022/01/11 11:13:24;;;;;;;45.38;20.08;;;6.20;99.90;;;;;;5048187;28;20540;-73
2022/01/11 11:15:51;;;;;;;50.08;19.05;;;6.30;99.90;;;;;;5052288;28;20094;-75
2022/01/11 11:18:28;;;;;;;47.60;20.60;;;6.40;99.90;;;;;;5052662;28;20092;-72
2022/01/11 11:20:54;;;;;;;49.92;19.05;;;6.50;99.90;;;;;;5049569;28;20503;-75
2022/01/11 11:23:21;;;;;;;44.88;18.42;;;6.50;99.90;;;;;;5052515;28;20044;-79
2022/01/11 11:25:46;;;;;;;40.28;18.20;;;6.30;99.90;;;;;;5051274;28;20029;-75
2022/01/11 11:28:12;;;;;;;45.50;18.63;;;6.40;99.90;;;;;;5052414;28;20379;-77
2022/01/11 11:30:39;;;;;;;41.83;19.55;;;6.50;99.90;;;;;;5049698;28;20097;-76
2022/01/11 11:33:06;;;;;;;46.22;19.98;;;6.60;99.90;;;;;;5051411;28;20682;-73
2022/01/11 11:35:32;;;;;;;42.45;18.63;;;6.60;99.90;;;;;;5051723;28;20124;-71
2022/01/11 11:38:01;;;;;;;48.00;19.17;;;6.40;99.90;;;;;;5051713;28;20029;-71
2022/01/11 11:40:27;;;;;;;43.58;19.63;;;6.40;99.90;;;;;;5038996;28;20130;-70
2022/01/11 11:42:59;;;;;;;46.92;19.40;;;6.60;99.90;;;;;;5040309;28;20112;-72
2022/01/11 11:45:34;;;;;;;48.80;18.33;;;6.90;99.90;;;;;;5052055;28;20457;-72
2022/01/11 11:48:09;;;;;;;45.38;17.88;;;6.90;99.90;;;;;;5051834;28;20037;-76
2022/01/11 11:51:05;;;;;;;42.55;18.83;;;7.00;99.90;;;;;;5068562;28;20674;-77
2022/01/11 11:53:38;;;;;;;42.78;19.15;;;7.10;99.90;;;;;;5070672;28;20028;-77
2022/01/11 11:56:26;;;;;;;44.15;17.75;;;7.20;99.90;;;;;;5070462;28;20079;-74
2022/01/11 11:58:57;;;;;;;40.15;16.35;;;6.90;99.90;;;;;;5070947;28;20028;-76
2022/01/11 12:01:41;;;;;;;40.67;17.90;;;6.90;99.90;;;;;;5070511;28;20036;-78
2022/01/11 12:04:30;;;;;;;44.97;17.65;;;6.90;99.90;;;;;;5070890;28;20041;-73
2022/01/11 12:06:57;;;;;;;46.08;18.42;;;6.80;99.90;;;;;;5070012;28;20036;-73
2022/01/11 12:09:29;;;;;;;44.35;18.02;;;6.70;99.90;;;;;;5071589;28;20024;-71
2022/01/11 12:11:59;;;;;;;58.58;19.25;;;6.70;99.90;;;;;;5070918;28;20055;-76
2022/01/11 12:14:36;;;;;;;46.63;18.15;;;6.70;99.90;;;;;;5069927;28;20046;-74
2022/01/11 12:17:22;;;;;;;38.38;16.98;;;6.70;99.90;;;;;;5070590;28;20067;-76
2022/01/11 12:19:53;;;;;;;45.58;19.42;;;6.70;99.90;;;;;;5071428;28;20473;-75
2022/01/11 12:22:22;;;;;;;42.60;18.40;;;6.70;99.90;;;;;;5069570;28;20335;-75
2022/01/11 12:24:49;;;;;;;68.72;28.50;;;6.90;99.90;;;;;;5070411;28;20029;-75
2022/01/11 12:27:19;;;;;;;56.88;21.48;;;7.00;99.90;;;;;;5071690;28;20056;-77
2022/01/11 12:29:59;;;;;;;43.30;19.00;;;7.20;99.90;;;;;;5070025;28;20044;-76
2022/01/11 12:32:26;;;;;;;54.70;20.58;;;7.10;99.90;;;;;;5071416;28;20039;-78
2022/01/11 12:34:57;;;;;;;36.63;15.95;;;7.10;99.90;;;;;;5069524;28;20248;-75
2022/01/11 12:37:39;;;;;;;46.33;18.17;;;7.10;99.90;;;;;;5069635;28;20040;-75
2022/01/11 12:40:10;;;;;;;45.67;17.13;;;7.10;99.90;;;;;;5071095;28;20032;-75
2022/01/11 12:42:36;;;;;;;37.78;16.10;;;7.00;99.90;;;;;;5070828;28;20035;-76